sensor_id;sensor_type;location;lat;lon;timestamp;temperature;humidity
6841;DHT22;3458;53.678;14.080;2023-04-15T00:01:03;8.10;99.90
6841;DHT22;3458;53.678;14.080;2023-04-15T00:03:30;8.10;99.90
6841;DHT22;3458;53.678;14.080;2023-04-15T00:05:56;8.10;99.90
6841;DHT22;3458;53.678;14.080;2023-04-15T00:08:22;8.10;99.90
6841;DHT22;3458;53.678;14.080;2023-04-15T00:10:47;8.10;99.90
6841;DHT22;3458;53.678;14.080;2023-04-15T00:13:13;8.00;99.90
6841;DHT22;3458;53.678;14.080;2023-04-15T00:15:39;8.10;99.90
6841;DHT22;3458;53.678;14.080;2023-04-15T00:18:05;8.10;99.90
6841;DHT22;3458;53.678;14.080;2023-04-15T00:20:32;8.10;99.90
6841;DHT22;3458;53.678;14.080;2023-04-15T00:22:58;8.00;99.90
6841;DHT22;3458;53.678;14.080;2023-04-15T00:25:24;8.00;99.90
6841;DHT22;3458;53.678;14.080;2023-04-15T00:27:50;8.00;99.90
6841;DHT22;3458;53.678;14.080;2023-04-15T00:30:15;8.00;99.90
6841;DHT22;3458;53.678;14.080;2023-04-15T00:32:41;8.00;99.90
6841;DHT22;3458;53.678;14.080;2023-04-15T00:35:07;8.00;99.90
6841;DHT22;3458;53.678;14.080;2023-04-15T00:37:33;8.00;99.90
6841;DHT22;3458;53.678;14.080;2023-04-15T00:39:59;8.00;99.90
6841;DHT22;3458;53.678;14.080;2023-04-15T00:42:25;8.00;99.90
6841;DHT22;3458;53.678;14.080;2023-04-15T00:44:50;8.00;99.90
6841;DHT22;3458;53.678;14.080;2023-04-15T00:47:17;8.00;99.90
6841;DHT22;3458;53.678;14.080;2023-04-15T00:49:43;7.90;99.90
6841;DHT22;3458;53.678;14.080;2023-04-15T00:52:08;7.90;99.90
6841;DHT22;3458;53.678;14.080;2023-04-15T00:54:34;7.90;99.90
6841;DHT22;3458;53.678;14.080;2023-04-15T00:57:00;7.90;99.90
6841;DHT22;3458;53.678;14.080;2023-04-15T00:59:26;7.80;99.90
6841;DHT22;3458;53.678;14.080;2023-04-15T01:01:52;7.80;99.90
6841;DHT22;3458;53.678;14.080;2023-04-15T01:04:17;7.80;99.90
6841;DHT22;3458;53.678;14.080;2023-04-15T01:06:43;7.80;99.90
6841;DHT22;3458;53.678;14.080;2023-04-15T01:09:09;7.80;99.90
6841;DHT22;3458;53.678;14.080;2023-04-15T01:11:35;7.80;99.90
6841;DHT22;3458;53.678;14.080;2023-04-15T01:14:01;7.70;99.90
6841;DHT22;3458;53.678;14.080;2023-04-15T01:16:27;7.70;99.90
6841;DHT22;3458;53.678;14.080;2023-04-15T01:18:53;7.70;99.90
6841;DHT22;3458;53.678;14.080;2023-04-15T01:21:19;7.70;99.90
6841;DHT22;3458;53.678;14.080;2023-04-15T01:23:46;7.70;99.90
6841;DHT22;3458;53.678;14.080;2023-04-15T01:26:12;7.70;99.90
6841;DHT22;3458;53.678;14.080;2023-04-15T01:28:38;7.70;99.90
6841;DHT22;3458;53.678;14.080;2023-04-15T01:31:05;7.60;99.90
6841;DHT22;3458;53.678;14.080;2023-04-15T01:33:31;7.60;99.90
6841;DHT22;3458;53.678;14.080;2023-04-15T01:35:57;7.60;99.90
6841;DHT22;3458;53.678;14.080;2023-04-15T01:38:23;7.60;99.90
6841;DHT22;3458;53.678;14.080;2023-04-15T01:40:48;7.60;99.90
6841;DHT22;3458;53.678;14.080;2023-04-15T01:43:14;7.60;99.90
6841;DHT22;3458;53.678;14.080;2023-04-15T01:45:39;7.50;99.90
6841;DHT22;3458;53.678;14.080;2023-04-15T01:48:05;7.40;99.90
6841;DHT22;3458;53.678;14.080;2023-04-15T01:50:31;7.40;99.90
6841;DHT22;3458;53.678;14.080;2023-04-15T01:52:56;7.50;99.90
6841;DHT22;3458;53.678;14.080;2023-04-15T01:55:22;7.50;99.90
6841;DHT22;3458;53.678;14.080;2023-04-15T01:57:48;7.40;99.90
6841;DHT22;3458;53.678;14.080;2023-04-15T02:00:13;7.40;99.90
6841;DHT22;3458;53.678;14.080;2023-04-15T02:02:39;7.40;99.90
6841;DHT22;3458;53.678;14.080;2023-04-15T02:05:05;7.40;99.90
6841;DHT22;3458;53.678;14.080;2023-04-15T02:07:30;7.40;99.90
6841;DHT22;3458;53.678;14.080;2023-04-15T02:09:56;7.40;99.90
6841;DHT22;3458;53.678;14.080;2023-04-15T02:12:22;7.30;99.90
6841;DHT22;3458;53.678;14.080;2023-04-15T02:14:47;7.30;99.90
6841;DHT22;3458;53.678;14.080;2023-04-15T02:17:13;7.30;99.90
6841;DHT22;3458;53.678;14.080;2023-04-15T02:19:38;7.30;99.90
6841;DHT22;3458;53.678;14.080;2023-04-15T02:22:04;7.20;99.90
6841;DHT22;3458;53.678;14.080;2023-04-15T02:24:31;7.20;99.90
6841;DHT22;3458;53.678;14.080;2023-04-15T02:26:57;7.20;99.90
6841;DHT22;3458;53.678;14.080;2023-04-15T02:29:22;7.20;99.90
6841;DHT22;3458;53.678;14.080;2023-04-15T02:31:48;7.10;99.90
6841;DHT22;3458;53.678;14.080;2023-04-15T02:34:14;7.20;99.90
6841;DHT22;3458;53.678;14.080;2023-04-15T02:36:39;7.20;99.90
6841;DHT22;3458;53.678;14.080;2023-04-15T02:39:05;7.20;99.90
6841;DHT22;3458;53.678;14.080;2023-04-15T02:41:31;7.10;99.90
6841;DHT22;3458;53.678;14.080;2023-04-15T02:43:56;7.10;99.90
6841;DHT22;3458;53.678;14.080;2023-04-15T02:46:22;7.10;99.90
6841;DHT22;3458;53.678;14.080;2023-04-15T02:48:48;7.10;99.90
6841;DHT22;3458;53.678;14.080;2023-04-15T02:51:16;7.10;99.90
6841;DHT22;3458;53.678;14.080;2023-04-15T02:53:41;7.10;99.90
6841;DHT22;3458;53.678;14.080;2023-04-15T02:56:07;7.10;99.90
6841;DHT22;3458;53.678;14.080;2023-04-15T02:58:34;7.20;99.90
6841;DHT22;3458;53.678;14.080;2023-04-15T03:01:00;7.20;99.90
6841;DHT22;3458;53.678;14.080;2023-04-15T03:03:25;7.20;99.90
6841;DHT22;3458;53.678;14.080;2023-04-15T03:05:52;7.20;99.90
6841;DHT22;3458;53.678;14.080;2023-04-15T03:08:18;7.20;99.90
6841;DHT22;3458;53.678;14.080;2023-04-15T03:10:43;7.20;99.90
6841;DHT22;3458;53.678;14.080;2023-04-15T03:13:09;7.20;99.90
6841;DHT22;3458;53.678;14.080;2023-04-15T03:15:34;7.20;99.90
6841;DHT22;3458;53.678;14.080;2023-04-15T03:18:00;7.20;99.90
6841;DHT22;3458;53.678;14.080;2023-04-15T03:20:26;7.10;99.90
6841;DHT22;3458;53.678;14.080;2023-04-15T03:22:51;7.10;99.90
6841;DHT22;3458;53.678;14.080;2023-04-15T03:25:17;7.10;99.90
6841;DHT22;3458;53.678;14.080;2023-04-15T03:27:42;7.10;99.90
6841;DHT22;3458;53.678;14.080;2023-04-15T03:30:08;7.00;99.90
6841;DHT22;3458;53.678;14.080;2023-04-15T03:32:34;7.00;99.90
6841;DHT22;3458;53.678;14.080;2023-04-15T03:34:59;7.10;99.90
6841;DHT22;3458;53.678;14.080;2023-04-15T03:37:25;7.10;99.90
6841;DHT22;3458;53.678;14.080;2023-04-15T03:39:50;7.10;99.90
6841;DHT22;3458;53.678;14.080;2023-04-15T03:42:16;7.10;99.90
6841;DHT22;3458;53.678;14.080;2023-04-15T03:44:41;7.10;99.90
6841;DHT22;3458;53.678;14.080;2023-04-15T03:47:07;7.20;99.90
6841;DHT22;3458;53.678;14.080;2023-04-15T03:49:32;7.20;99.90
6841;DHT22;3458;53.678;14.080;2023-04-15T03:51:58;7.20;99.90
6841;DHT22;3458;53.678;14.080;2023-04-15T03:54:24;7.30;99.90
6841;DHT22;3458;53.678;14.080;2023-04-15T03:56:49;7.30;99.90
6841;DHT22;3458;53.678;14.080;2023-04-15T03:59:16;7.30;99.90
6841;DHT22;3458;53.678;14.080;2023-04-15T04:01:41;7.30;99.90
6841;DHT22;3458;53.678;14.080;2023-04-15T04:04:07;7.30;99.90
6841;DHT22;3458;53.678;14.080;2023-04-15T04:06:32;7.30;99.90
6841;DHT22;3458;53.678;14.080;2023-04-15T04:08:58;7.30;99.90
6841;DHT22;3458;53.678;14.080;2023-04-15T04:11:23;7.30;99.90
6841;DHT22;3458;53.678;14.080;2023-04-15T04:13:49;7.30;99.90
6841;DHT22;3458;53.678;14.080;2023-04-15T04:16:15;7.30;99.90
6841;DHT22;3458;53.678;14.080;2023-04-15T04:18:40;7.30;99.90
6841;DHT22;3458;53.678;14.080;2023-04-15T04:21:06;7.30;99.90
6841;DHT22;3458;53.678;14.080;2023-04-15T04:23:32;7.30;99.90
6841;DHT22;3458;53.678;14.080;2023-04-15T04:25:57;7.30;99.90
6841;DHT22;3458;53.678;14.080;2023-04-15T04:28:23;7.40;99.90
6841;DHT22;3458;53.678;14.080;2023-04-15T04:30:48;7.40;99.90
6841;DHT22;3458;53.678;14.080;2023-04-15T04:33:14;7.40;99.90
6841;DHT22;3458;53.678;14.080;2023-04-15T04:35:39;7.40;99.90
6841;DHT22;3458;53.678;14.080;2023-04-15T04:38:05;7.50;99.90
6841;DHT22;3458;53.678;14.080;2023-04-15T04:40:30;7.50;99.90
6841;DHT22;3458;53.678;14.080;2023-04-15T04:42:56;7.60;99.90
6841;DHT22;3458;53.678;14.080;2023-04-15T04:45:21;7.60;99.90
6841;DHT22;3458;53.678;14.080;2023-04-15T04:47:47;7.60;99.90
6841;DHT22;3458;53.678;14.080;2023-04-15T04:50:12;7.60;99.90
6841;DHT22;3458;53.678;14.080;2023-04-15T04:52:38;7.60;99.90
6841;DHT22;3458;53.678;14.080;2023-04-15T04:55:04;7.70;99.90
6841;DHT22;3458;53.678;14.080;2023-04-15T04:57:29;7.70;99.90
6841;DHT22;3458;53.678;14.080;2023-04-15T04:59:55;7.80;99.90
6841;DHT22;3458;53.678;14.080;2023-04-15T05:02:21;7.80;99.90
6841;DHT22;3458;53.678;14.080;2023-04-15T05:04:46;7.80;99.90
6841;DHT22;3458;53.678;14.080;2023-04-15T05:07:12;7.80;99.90
6841;DHT22;3458;53.678;14.080;2023-04-15T05:09:37;7.90;99.90
6841;DHT22;3458;53.678;14.080;2023-04-15T05:12:03;7.90;99.90
6841;DHT22;3458;53.678;14.080;2023-04-15T05:14:29;8.00;99.90
6841;DHT22;3458;53.678;14.080;2023-04-15T05:16:54;8.00;99.90
6841;DHT22;3458;53.678;14.080;2023-04-15T05:19:20;8.00;99.90
6841;DHT22;3458;53.678;14.080;2023-04-15T05:21:45;8.10;99.90
6841;DHT22;3458;53.678;14.080;2023-04-15T05:24:11;8.10;99.90
6841;DHT22;3458;53.678;14.080;2023-04-15T05:26:36;8.10;99.90
6841;DHT22;3458;53.678;14.080;2023-04-15T05:29:02;8.20;99.90
6841;DHT22;3458;53.678;14.080;2023-04-15T05:31:27;8.20;99.90
6841;DHT22;3458;53.678;14.080;2023-04-15T05:33:53;8.30;99.90
6841;DHT22;3458;53.678;14.080;2023-04-15T05:36:18;8.30;99.90
6841;DHT22;3458;53.678;14.080;2023-04-15T05:38:44;8.30;99.90
6841;DHT22;3458;53.678;14.080;2023-04-15T05:41:09;8.40;99.90
6841;DHT22;3458;53.678;14.080;2023-04-15T05:43:35;8.40;99.90
6841;DHT22;3458;53.678;14.080;2023-04-15T05:46:00;8.40;99.90
6841;DHT22;3458;53.678;14.080;2023-04-15T05:48:26;8.50;99.90
6841;DHT22;3458;53.678;14.080;2023-04-15T05:50:51;8.50;99.90
6841;DHT22;3458;53.678;14.080;2023-04-15T05:53:17;8.60;99.90
6841;DHT22;3458;53.678;14.080;2023-04-15T05:55:42;8.60;99.90
6841;DHT22;3458;53.678;14.080;2023-04-15T05:58:08;8.60;99.90
6841;DHT22;3458;53.678;14.080;2023-04-15T06:00:33;8.70;99.90
6841;DHT22;3458;53.678;14.080;2023-04-15T06:02:59;8.80;99.90
6841;DHT22;3458;53.678;14.080;2023-04-15T06:05:25;8.80;99.90
6841;DHT22;3458;53.678;14.080;2023-04-15T06:07:50;9.00;99.90
6841;DHT22;3458;53.678;14.080;2023-04-15T06:10:16;9.10;99.90
6841;DHT22;3458;53.678;14.080;2023-04-15T06:12:42;9.20;99.90
6841;DHT22;3458;53.678;14.080;2023-04-15T06:15:08;9.20;99.90
6841;DHT22;3458;53.678;14.080;2023-04-15T06:17:37;9.20;99.90
6841;DHT22;3458;53.678;14.080;2023-04-15T06:20:03;9.20;99.90
6841;DHT22;3458;53.678;14.080;2023-04-15T06:22:28;9.20;99.90
6841;DHT22;3458;53.678;14.080;2023-04-15T06:24:54;9.20;99.90
6841;DHT22;3458;53.678;14.080;2023-04-15T06:27:19;9.20;99.90
6841;DHT22;3458;53.678;14.080;2023-04-15T06:29:45;9.20;99.90
6841;DHT22;3458;53.678;14.080;2023-04-15T06:32:11;9.30;99.90
6841;DHT22;3458;53.678;14.080;2023-04-15T06:34:37;9.30;99.90
6841;DHT22;3458;53.678;14.080;2023-04-15T06:37:02;9.30;99.90
6841;DHT22;3458;53.678;14.080;2023-04-15T06:39:28;9.30;99.90
6841;DHT22;3458;53.678;14.080;2023-04-15T06:41:53;9.40;99.90
6841;DHT22;3458;53.678;14.080;2023-04-15T06:44:19;9.40;99.90
6841;DHT22;3458;53.678;14.080;2023-04-15T06:46:44;9.40;99.90
6841;DHT22;3458;53.678;14.080;2023-04-15T06:49:10;9.50;99.90
6841;DHT22;3458;53.678;14.080;2023-04-15T06:51:36;9.50;99.90
6841;DHT22;3458;53.678;14.080;2023-04-15T06:54:02;9.60;99.90
6841;DHT22;3458;53.678;14.080;2023-04-15T06:56:31;9.60;99.90
6841;DHT22;3458;53.678;14.080;2023-04-15T06:58:56;9.60;99.90
6841;DHT22;3458;53.678;14.080;2023-04-15T07:01:22;9.60;99.90
6841;DHT22;3458;53.678;14.080;2023-04-15T07:03:47;9.70;99.90
6841;DHT22;3458;53.678;14.080;2023-04-15T07:06:13;9.70;99.90
6841;DHT22;3458;53.678;14.080;2023-04-15T07:08:38;9.70;99.90
6841;DHT22;3458;53.678;14.080;2023-04-15T07:11:04;9.80;99.90
6841;DHT22;3458;53.678;14.080;2023-04-15T07:13:30;9.80;99.90
6841;DHT22;3458;53.678;14.080;2023-04-15T07:15:56;9.80;99.90
6841;DHT22;3458;53.678;14.080;2023-04-15T07:18:22;9.90;99.90
6841;DHT22;3458;53.678;14.080;2023-04-15T07:20:47;10.00;99.90
6841;DHT22;3458;53.678;14.080;2023-04-15T07:23:13;10.00;99.90
6841;DHT22;3458;53.678;14.080;2023-04-15T07:25:39;10.10;99.90
6841;DHT22;3458;53.678;14.080;2023-04-15T07:28:04;10.20;99.90
6841;DHT22;3458;53.678;14.080;2023-04-15T07:30:30;10.30;99.90
6841;DHT22;3458;53.678;14.080;2023-04-15T07:32:56;10.30;99.90
6841;DHT22;3458;53.678;14.080;2023-04-15T07:35:23;10.40;99.90
6841;DHT22;3458;53.678;14.080;2023-04-15T07:37:49;10.50;99.90
6841;DHT22;3458;53.678;14.080;2023-04-15T07:40:15;10.60;99.90
6841;DHT22;3458;53.678;14.080;2023-04-15T07:42:41;10.70;99.90
6841;DHT22;3458;53.678;14.080;2023-04-15T07:45:08;10.80;99.90
6841;DHT22;3458;53.678;14.080;2023-04-15T07:47:33;10.90;99.90
6841;DHT22;3458;53.678;14.080;2023-04-15T07:49:59;11.00;99.90
6841;DHT22;3458;53.678;14.080;2023-04-15T07:52:25;11.10;99.90
6841;DHT22;3458;53.678;14.080;2023-04-15T07:54:50;11.20;99.90
6841;DHT22;3458;53.678;14.080;2023-04-15T07:57:16;11.20;99.90
6841;DHT22;3458;53.678;14.080;2023-04-15T07:59:41;11.20;99.90
6841;DHT22;3458;53.678;14.080;2023-04-15T08:02:07;11.30;99.90
6841;DHT22;3458;53.678;14.080;2023-04-15T08:04:33;11.40;99.90
6841;DHT22;3458;53.678;14.080;2023-04-15T08:06:58;11.50;99.90
6841;DHT22;3458;53.678;14.080;2023-04-15T08:09:24;11.50;99.90
6841;DHT22;3458;53.678;14.080;2023-04-15T08:11:50;11.50;99.90
6841;DHT22;3458;53.678;14.080;2023-04-15T08:14:16;11.60;99.90
6841;DHT22;3458;53.678;14.080;2023-04-15T08:16:41;11.60;99.90
6841;DHT22;3458;53.678;14.080;2023-04-15T08:19:07;11.70;99.90
6841;DHT22;3458;53.678;14.080;2023-04-15T08:21:32;11.80;99.90
6841;DHT22;3458;53.678;14.080;2023-04-15T08:23:58;11.80;99.90
6841;DHT22;3458;53.678;14.080;2023-04-15T08:26:24;11.90;99.90
6841;DHT22;3458;53.678;14.080;2023-04-15T08:28:50;11.90;99.90
6841;DHT22;3458;53.678;14.080;2023-04-15T08:31:17;11.90;99.90
6841;DHT22;3458;53.678;14.080;2023-04-15T08:33:43;11.90;99.90
6841;DHT22;3458;53.678;14.080;2023-04-15T08:36:08;11.90;99.90
6841;DHT22;3458;53.678;14.080;2023-04-15T08:38:34;12.00;99.90
6841;DHT22;3458;53.678;14.080;2023-04-15T08:41:05;12.00;99.90
6841;DHT22;3458;53.678;14.080;2023-04-15T08:43:45;12.00;99.90
6841;DHT22;3458;53.678;14.080;2023-04-15T08:46:13;12.00;99.90
6841;DHT22;3458;53.678;14.080;2023-04-15T08:48:39;12.10;99.90
6841;DHT22;3458;53.678;14.080;2023-04-15T08:51:05;12.10;99.90
6841;DHT22;3458;53.678;14.080;2023-04-15T08:53:31;12.20;99.90
6841;DHT22;3458;53.678;14.080;2023-04-15T08:55:59;12.30;99.90
6841;DHT22;3458;53.678;14.080;2023-04-15T08:58:26;12.40;99.90
6841;DHT22;3458;53.678;14.080;2023-04-15T09:00:52;12.40;99.90
6841;DHT22;3458;53.678;14.080;2023-04-15T09:03:19;12.50;99.90
6841;DHT22;3458;53.678;14.080;2023-04-15T09:05:46;12.50;99.90
6841;DHT22;3458;53.678;14.080;2023-04-15T09:08:11;12.50;99.90
6841;DHT22;3458;53.678;14.080;2023-04-15T09:10:37;12.40;99.90
6841;DHT22;3458;53.678;14.080;2023-04-15T09:13:02;12.50;99.90
6841;DHT22;3458;53.678;14.080;2023-04-15T09:15:29;12.50;99.90
6841;DHT22;3458;53.678;14.080;2023-04-15T09:17:57;12.50;99.90
6841;DHT22;3458;53.678;14.080;2023-04-15T09:20:22;12.50;99.90
6841;DHT22;3458;53.678;14.080;2023-04-15T09:22:49;12.50;99.90
6841;DHT22;3458;53.678;14.080;2023-04-15T09:27:51;12.60;99.90
6841;DHT22;3458;53.678;14.080;2023-04-15T09:30:17;12.60;99.90
6841;DHT22;3458;53.678;14.080;2023-04-15T09:32:53;12.60;99.90
6841;DHT22;3458;53.678;14.080;2023-04-15T09:35:20;12.70;99.90
6841;DHT22;3458;53.678;14.080;2023-04-15T09:37:46;12.70;99.90
6841;DHT22;3458;53.678;14.080;2023-04-15T09:40:12;12.70;99.90
6841;DHT22;3458;53.678;14.080;2023-04-15T09:42:54;12.60;99.90
6841;DHT22;3458;53.678;14.080;2023-04-15T09:45:20;12.50;99.90
6841;DHT22;3458;53.678;14.080;2023-04-15T09:47:46;12.50;99.90
6841;DHT22;3458;53.678;14.080;2023-04-15T09:50:12;12.50;99.90
6841;DHT22;3458;53.678;14.080;2023-04-15T09:52:42;12.50;99.90
6841;DHT22;3458;53.678;14.080;2023-04-15T09:55:09;12.50;99.90
6841;DHT22;3458;53.678;14.080;2023-04-15T09:57:35;12.50;99.90
6841;DHT22;3458;53.678;14.080;2023-04-15T10:00:03;12.60;99.90
6841;DHT22;3458;53.678;14.080;2023-04-15T10:02:29;12.60;99.90
6841;DHT22;3458;53.678;14.080;2023-04-15T10:04:56;12.60;99.90
6841;DHT22;3458;53.678;14.080;2023-04-15T10:07:22;12.50;99.90
6841;DHT22;3458;53.678;14.080;2023-04-15T10:09:48;12.40;99.90
6841;DHT22;3458;53.678;14.080;2023-04-15T10:12:16;12.30;99.90
6841;DHT22;3458;53.678;14.080;2023-04-15T10:14:42;12.20;99.90
6841;DHT22;3458;53.678;14.080;2023-04-15T10:17:10;12.10;99.90
6841;DHT22;3458;53.678;14.080;2023-04-15T10:19:37;12.00;99.90
6841;DHT22;3458;53.678;14.080;2023-04-15T10:22:02;12.00;99.90
6841;DHT22;3458;53.678;14.080;2023-04-15T10:24:30;11.90;99.90
6841;DHT22;3458;53.678;14.080;2023-04-15T10:26:57;12.00;99.90
6841;DHT22;3458;53.678;14.080;2023-04-15T10:29:24;12.00;99.90
6841;DHT22;3458;53.678;14.080;2023-04-15T10:31:52;12.00;99.90
6841;DHT22;3458;53.678;14.080;2023-04-15T10:34:19;12.10;99.90
6841;DHT22;3458;53.678;14.080;2023-04-15T10:36:45;12.10;99.90
6841;DHT22;3458;53.678;14.080;2023-04-15T10:39:40;12.20;99.90
6841;DHT22;3458;53.678;14.080;2023-04-15T10:42:15;12.30;99.90
6841;DHT22;3458;53.678;14.080;2023-04-15T10:44:42;12.30;99.90
6841;DHT22;3458;53.678;14.080;2023-04-15T10:47:15;12.40;99.90
6841;DHT22;3458;53.678;14.080;2023-04-15T10:52:16;12.50;99.90
6841;DHT22;3458;53.678;14.080;2023-04-15T10:54:42;12.50;99.90
6841;DHT22;3458;53.678;14.080;2023-04-15T10:57:21;12.50;99.90
6841;DHT22;3458;53.678;14.080;2023-04-15T11:00:27;12.50;99.90
6841;DHT22;3458;53.678;14.080;2023-04-15T11:03:05;12.40;99.90
6841;DHT22;3458;53.678;14.080;2023-04-15T11:08:06;12.30;99.90
6841;DHT22;3458;53.678;14.080;2023-04-15T11:13:02;12.20;99.90
6841;DHT22;3458;53.678;14.080;2023-04-15T11:15:38;12.10;99.90
6841;DHT22;3458;53.678;14.080;2023-04-15T11:20:50;12.10;99.90
6841;DHT22;3458;53.678;14.080;2023-04-15T11:23:36;12.00;99.90
6841;DHT22;3458;53.678;14.080;2023-04-15T11:26:03;12.00;99.90
6841;DHT22;3458;53.678;14.080;2023-04-15T11:28:34;12.00;99.90
6841;DHT22;3458;53.678;14.080;2023-04-15T11:31:11;12.00;99.90
6841;DHT22;3458;53.678;14.080;2023-04-15T11:33:54;12.00;99.90
6841;DHT22;3458;53.678;14.080;2023-04-15T11:36:23;12.00;99.90
6841;DHT22;3458;53.678;14.080;2023-04-15T11:38:50;12.10;99.90
6841;DHT22;3458;53.678;14.080;2023-04-15T11:41:19;12.10;99.90
6841;DHT22;3458;53.678;14.080;2023-04-15T11:43:45;12.20;99.90
6841;DHT22;3458;53.678;14.080;2023-04-15T11:46:11;12.30;99.90
6841;DHT22;3458;53.678;14.080;2023-04-15T11:48:41;12.30;99.90
6841;DHT22;3458;53.678;14.080;2023-04-15T11:51:08;12.30;99.90
6841;DHT22;3458;53.678;14.080;2023-04-15T11:53:42;12.30;99.90
6841;DHT22;3458;53.678;14.080;2023-04-15T11:56:09;12.30;99.90
6841;DHT22;3458;53.678;14.080;2023-04-15T11:58:36;12.30;99.90
6841;DHT22;3458;53.678;14.080;2023-04-15T12:01:03;12.30;99.90
6841;DHT22;3458;53.678;14.080;2023-04-15T12:03:30;12.40;99.90
6841;DHT22;3458;53.678;14.080;2023-04-15T12:13:55;12.40;99.90
6841;DHT22;3458;53.678;14.080;2023-04-15T12:16:21;12.50;99.90
6841;DHT22;3458;53.678;14.080;2023-04-15T12:18:53;12.50;99.90
6841;DHT22;3458;53.678;14.080;2023-04-15T12:21:21;12.60;99.90
6841;DHT22;3458;53.678;14.080;2023-04-15T12:26:14;12.50;99.90
6841;DHT22;3458;53.678;14.080;2023-04-15T12:28:40;12.50;99.90
6841;DHT22;3458;53.678;14.080;2023-04-15T12:31:10;12.50;99.90
6841;DHT22;3458;53.678;14.080;2023-04-15T12:33:36;12.50;99.90
6841;DHT22;3458;53.678;14.080;2023-04-15T12:36:02;12.40;99.90
6841;DHT22;3458;53.678;14.080;2023-04-15T12:38:28;12.40;99.90
6841;DHT22;3458;53.678;14.080;2023-04-15T12:40:54;12.30;99.90
6841;DHT22;3458;53.678;14.080;2023-04-15T12:43:19;12.30;99.90
6841;DHT22;3458;53.678;14.080;2023-04-15T12:45:45;12.20;99.90
6841;DHT22;3458;53.678;14.080;2023-04-15T12:48:11;12.20;99.90
6841;DHT22;3458;53.678;14.080;2023-04-15T12:50:36;12.10;99.90
6841;DHT22;3458;53.678;14.080;2023-04-15T12:53:02;12.10;99.90
6841;DHT22;3458;53.678;14.080;2023-04-15T12:55:28;12.10;99.90
6841;DHT22;3458;53.678;14.080;2023-04-15T12:57:55;12.10;99.90
6841;DHT22;3458;53.678;14.080;2023-04-15T13:00:21;12.00;99.90
6841;DHT22;3458;53.678;14.080;2023-04-15T13:02:46;12.00;99.90
6841;DHT22;3458;53.678;14.080;2023-04-15T13:05:12;12.00;99.90
6841;DHT22;3458;53.678;14.080;2023-04-15T13:07:39;11.90;99.90
6841;DHT22;3458;53.678;14.080;2023-04-15T13:10:05;11.90;99.90
6841;DHT22;3458;53.678;14.080;2023-04-15T13:12:30;11.90;99.90
6841;DHT22;3458;53.678;14.080;2023-04-15T13:14:57;11.90;99.90
6841;DHT22;3458;53.678;14.080;2023-04-15T13:17:22;11.90;99.90
6841;DHT22;3458;53.678;14.080;2023-04-15T13:19:48;11.90;99.90
6841;DHT22;3458;53.678;14.080;2023-04-15T13:22:13;11.90;99.90
6841;DHT22;3458;53.678;14.080;2023-04-15T13:24:39;11.90;99.90
6841;DHT22;3458;53.678;14.080;2023-04-15T13:27:05;11.80;99.90
6841;DHT22;3458;53.678;14.080;2023-04-15T13:29:32;11.80;99.90
6841;DHT22;3458;53.678;14.080;2023-04-15T13:31:58;11.80;99.90
6841;DHT22;3458;53.678;14.080;2023-04-15T13:34:24;11.80;99.90
6841;DHT22;3458;53.678;14.080;2023-04-15T13:36:49;11.70;99.90
6841;DHT22;3458;53.678;14.080;2023-04-15T13:39:15;11.70;99.90
6841;DHT22;3458;53.678;14.080;2023-04-15T13:41:41;11.60;99.90
6841;DHT22;3458;53.678;14.080;2023-04-15T13:44:06;11.60;99.90
6841;DHT22;3458;53.678;14.080;2023-04-15T13:46:32;11.60;99.90
6841;DHT22;3458;53.678;14.080;2023-04-15T13:48:57;11.60;99.90
6841;DHT22;3458;53.678;14.080;2023-04-15T13:51:23;11.50;99.90
6841;DHT22;3458;53.678;14.080;2023-04-15T13:53:48;11.50;99.90
6841;DHT22;3458;53.678;14.080;2023-04-15T13:56:14;11.50;99.90
6841;DHT22;3458;53.678;14.080;2023-04-15T13:58:40;11.50;99.90
6841;DHT22;3458;53.678;14.080;2023-04-15T14:01:05;11.50;99.90
6841;DHT22;3458;53.678;14.080;2023-04-15T14:03:31;11.40;99.90
6841;DHT22;3458;53.678;14.080;2023-04-15T14:05:56;11.50;99.90
6841;DHT22;3458;53.678;14.080;2023-04-15T14:08:23;11.50;99.90
6841;DHT22;3458;53.678;14.080;2023-04-15T14:10:49;11.50;99.90
6841;DHT22;3458;53.678;14.080;2023-04-15T14:13:15;11.40;99.90
6841;DHT22;3458;53.678;14.080;2023-04-15T14:15:41;11.40;99.90
6841;DHT22;3458;53.678;14.080;2023-04-15T14:18:06;11.40;99.90
6841;DHT22;3458;53.678;14.080;2023-04-15T14:20:32;11.30;99.90
6841;DHT22;3458;53.678;14.080;2023-04-15T14:22:58;11.30;99.90
6841;DHT22;3458;53.678;14.080;2023-04-15T14:25:23;11.30;99.90
6841;DHT22;3458;53.678;14.080;2023-04-15T14:27:49;11.30;99.90
6841;DHT22;3458;53.678;14.080;2023-04-15T14:30:15;11.30;99.90
6841;DHT22;3458;53.678;14.080;2023-04-15T14:32:41;11.30;99.90
6841;DHT22;3458;53.678;14.080;2023-04-15T14:35:07;11.30;99.90
6841;DHT22;3458;53.678;14.080;2023-04-15T14:37:32;11.40;99.90
6841;DHT22;3458;53.678;14.080;2023-04-15T14:39:58;11.40;99.90
6841;DHT22;3458;53.678;14.080;2023-04-15T14:42:23;11.40;99.90
6841;DHT22;3458;53.678;14.080;2023-04-15T14:44:49;11.40;99.90
6841;DHT22;3458;53.678;14.080;2023-04-15T14:47:15;11.40;99.90
6841;DHT22;3458;53.678;14.080;2023-04-15T14:49:40;11.50;99.90
6841;DHT22;3458;53.678;14.080;2023-04-15T14:52:06;11.50;99.90
6841;DHT22;3458;53.678;14.080;2023-04-15T14:54:31;11.50;99.90
6841;DHT22;3458;53.678;14.080;2023-04-15T14:56:57;11.50;99.90
6841;DHT22;3458;53.678;14.080;2023-04-15T14:59:22;11.50;99.90
6841;DHT22;3458;53.678;14.080;2023-04-15T15:01:48;11.50;99.90
6841;DHT22;3458;53.678;14.080;2023-04-15T15:04:13;11.50;99.90
6841;DHT22;3458;53.678;14.080;2023-04-15T15:06:41;11.50;99.90
6841;DHT22;3458;53.678;14.080;2023-04-15T15:09:06;11.50;99.90
6841;DHT22;3458;53.678;14.080;2023-04-15T15:11:32;11.50;99.90
6841;DHT22;3458;53.678;14.080;2023-04-15T15:13:58;11.50;99.90
6841;DHT22;3458;53.678;14.080;2023-04-15T15:16:23;11.50;99.90
6841;DHT22;3458;53.678;14.080;2023-04-15T15:18:49;11.50;99.90
6841;DHT22;3458;53.678;14.080;2023-04-15T15:21:15;11.50;99.90
6841;DHT22;3458;53.678;14.080;2023-04-15T15:23:41;11.50;99.90
6841;DHT22;3458;53.678;14.080;2023-04-15T15:26:06;11.60;99.90
6841;DHT22;3458;53.678;14.080;2023-04-15T15:28:33;11.60;99.90
6841;DHT22;3458;53.678;14.080;2023-04-15T15:30:59;11.60;99.90
6841;DHT22;3458;53.678;14.080;2023-04-15T15:33:24;11.60;99.90
6841;DHT22;3458;53.678;14.080;2023-04-15T15:35:50;11.60;99.90
6841;DHT22;3458;53.678;14.080;2023-04-15T15:38:15;11.50;99.90
6841;DHT22;3458;53.678;14.080;2023-04-15T15:40:41;11.50;99.90
6841;DHT22;3458;53.678;14.080;2023-04-15T15:43:07;11.50;99.90
6841;DHT22;3458;53.678;14.080;2023-04-15T15:45:32;11.50;99.90
6841;DHT22;3458;53.678;14.080;2023-04-15T15:47:58;11.50;99.90
6841;DHT22;3458;53.678;14.080;2023-04-15T15:50:24;11.40;99.90
6841;DHT22;3458;53.678;14.080;2023-04-15T15:52:50;11.40;99.90
6841;DHT22;3458;53.678;14.080;2023-04-15T15:55:16;11.40;99.90
6841;DHT22;3458;53.678;14.080;2023-04-15T15:57:41;11.40;99.90
6841;DHT22;3458;53.678;14.080;2023-04-15T16:00:07;11.30;99.90
6841;DHT22;3458;53.678;14.080;2023-04-15T16:02:34;11.20;99.90
6841;DHT22;3458;53.678;14.080;2023-04-15T16:05:00;11.20;99.90
6841;DHT22;3458;53.678;14.080;2023-04-15T16:07:25;11.20;99.90
6841;DHT22;3458;53.678;14.080;2023-04-15T16:09:52;11.10;99.90